createdAt,value
2022-11-28T00:01:41.459Z,11.60
2022-11-28T00:04:08.314Z,12.60
2022-11-28T00:06:38.982Z,14.75
2022-11-28T00:09:06.146Z,15.40
2022-11-28T00:11:32.658Z,12.40
2022-11-28T00:13:59.107Z,12.00
2022-11-28T00:16:26.739Z,17.75
2022-11-28T00:18:55.665Z,16.00
2022-11-28T00:21:22.480Z,15.80
2022-11-28T00:23:49.044Z,14.40
2022-11-28T00:26:17.680Z,12.00
2022-11-28T00:28:44.237Z,11.00
2022-11-28T00:31:18.651Z,8.20
2022-11-28T00:33:45.358Z,9.40
2022-11-28T00:36:11.902Z,9.00
2022-11-28T00:38:38.522Z,10.00
2022-11-28T00:41:15.774Z,10.00
2022-11-28T00:43:43.047Z,10.25
2022-11-28T00:46:09.782Z,7.20
2022-11-28T00:48:36.625Z,10.00
2022-11-28T00:51:10.184Z,13.00
2022-11-28T00:53:37.036Z,9.50
2022-11-28T00:56:07.153Z,10.00
2022-11-28T00:58:34.549Z,12.00
2022-11-28T01:01:01.303Z,9.75
2022-11-28T01:03:27.781Z,13.40
2022-11-28T01:05:54.194Z,10.00
2022-11-28T01:08:20.627Z,15.20
2022-11-28T01:10:47.185Z,11.00
2022-11-28T01:13:13.693Z,9.40
2022-11-28T01:15:41.970Z,10.80
2022-11-28T01:18:08.820Z,11.00
2022-11-28T01:20:35.448Z,9.00
2022-11-28T01:23:02.056Z,9.25
2022-11-28T01:25:28.483Z,8.00
2022-11-28T01:27:54.932Z,10.00
2022-11-28T01:30:21.477Z,8.40
2022-11-28T01:32:47.928Z,8.00
2022-11-28T01:35:14.368Z,10.00
2022-11-28T01:37:40.861Z,8.40
2022-11-28T01:40:07.705Z,8.20
2022-11-28T01:42:34.190Z,8.75
2022-11-28T01:45:11.904Z,11.00
2022-11-28T01:47:38.571Z,10.00
2022-11-28T01:50:05.905Z,7.40
2022-11-28T01:52:33.816Z,10.25
2022-11-28T01:55:02.330Z,9.00
2022-11-28T01:57:29.334Z,9.50
2022-11-28T01:59:55.713Z,10.20
2022-11-28T02:02:48.320Z,8.25
2022-11-28T02:05:15.755Z,7.75
2022-11-28T02:07:42.917Z,9.60
2022-11-28T02:10:10.887Z,11.00
2022-11-28T02:12:40.275Z,9.00
2022-11-28T02:15:12.959Z,11.00
2022-11-28T02:18:01.059Z,10.40
2022-11-28T02:20:30.483Z,9.00
2022-11-28T02:22:56.878Z,12.00
2022-11-28T02:25:42.157Z,11.00
2022-11-28T02:28:11.684Z,10.00
2022-11-28T02:30:56.978Z,11.00
2022-11-28T02:33:23.406Z,8.25
2022-11-28T02:35:54.209Z,6.60
2022-11-28T02:38:39.240Z,7.50
2022-11-28T02:41:15.666Z,7.00
2022-11-28T02:44:02.702Z,7.00
2022-11-28T02:46:36.825Z,6.00
2022-11-28T02:49:04.705Z,8.60
2022-11-28T02:51:41.997Z,9.00
2022-11-28T02:54:10.673Z,6.50
2022-11-28T02:56:37.156Z,6.50
2022-11-28T02:59:04.269Z,5.00
2022-11-28T03:01:36.154Z,4.60
2022-11-28T03:04:08.754Z,4.00
2022-11-28T03:06:41.512Z,6.00
2022-11-28T03:09:07.917Z,9.00
2022-11-28T03:11:34.298Z,6.60
2022-11-28T03:14:03.547Z,6.25
2022-11-28T03:16:50.343Z,5.00
2022-11-28T03:19:32.851Z,9.00
2022-11-28T03:21:59.224Z,7.00
2022-11-28T03:24:35.449Z,5.60
2022-11-28T03:27:13.437Z,8.00
2022-11-28T03:29:43.125Z,11.00
2022-11-28T03:32:16.690Z,6.33
2022-11-28T03:34:45.932Z,7.00
2022-11-28T03:37:16.748Z,6.80
2022-11-28T03:39:46.865Z,6.00
2022-11-28T03:42:16.276Z,5.25
2022-11-28T03:44:48.372Z,7.00
2022-11-28T03:47:15.084Z,6.00
2022-11-28T03:49:44.982Z,7.00
2022-11-28T03:52:29.772Z,5.00
2022-11-28T03:54:59.169Z,5.00
2022-11-28T03:57:37.842Z,5.00
2022-11-28T04:00:07.408Z,6.00
2022-11-28T04:02:42.784Z,5.00
2022-11-28T04:05:21.066Z,6.00
2022-11-28T04:08:07.721Z,5.00
2022-11-28T04:10:36.790Z,6.00
2022-11-28T04:13:12.518Z,7.00
2022-11-28T04:15:48.274Z,4.75
2022-11-28T04:18:17.553Z,6.75
2022-11-28T04:21:07.338Z,6.00
2022-11-28T04:23:35.788Z,6.00
2022-11-28T04:26:06.468Z,4.00
2022-11-28T04:28:34.779Z,7.80
2022-11-28T04:31:02.827Z,5.40
2022-11-28T04:33:31.690Z,4.20
2022-11-28T04:35:59.174Z,5.00
2022-11-28T04:38:27.100Z,4.00
2022-11-28T04:40:57.042Z,4.60
2022-11-28T04:43:29.191Z,6.00
2022-11-28T04:46:01.578Z,7.00
2022-11-28T04:48:32.845Z,5.00
2022-11-28T04:51:14.246Z,5.00
2022-11-28T04:53:49.849Z,5.75
2022-11-28T04:56:19.856Z,5.40
2022-11-28T04:58:47.791Z,4.80
2022-11-28T05:01:21.388Z,5.00
2022-11-28T05:03:48.193Z,7.00
2022-11-28T05:06:31.277Z,5.40
2022-11-28T05:08:58.029Z,6.00
2022-11-28T05:11:24.583Z,5.75
2022-11-28T05:13:51.030Z,5.00
2022-11-28T05:16:17.923Z,6.00
2022-11-28T05:18:44.460Z,6.00
2022-11-28T05:21:11.488Z,4.25
2022-11-28T05:23:39.047Z,4.75
2022-11-28T05:26:09.282Z,4.00
2022-11-28T05:28:35.820Z,6.00
2022-11-28T05:31:02.470Z,5.00
2022-11-28T05:33:30.332Z,5.00
2022-11-28T05:35:57.274Z,5.00
2022-11-28T05:38:23.735Z,8.50
2022-11-28T05:40:50.164Z,8.00
2022-11-28T05:43:16.600Z,7.00
2022-11-28T05:45:43.493Z,6.00
2022-11-28T05:48:10.395Z,8.00
2022-11-28T05:50:40.079Z,7.00
2022-11-28T05:53:06.670Z,6.60
2022-11-28T05:55:33.083Z,5.00
2022-11-28T05:57:59.515Z,6.00
2022-11-28T06:00:25.998Z,7.00
2022-11-28T06:02:55.929Z,17.00
2022-11-28T06:05:41.673Z,13.40
2022-11-28T06:08:10.852Z,17.20
2022-11-28T06:10:37.369Z,9.00
2022-11-28T06:13:03.774Z,12.00
2022-11-28T06:15:34.912Z,7.60
2022-11-28T06:18:03.903Z,13.00
2022-11-28T06:20:30.320Z,6.25
2022-11-28T06:22:56.770Z,10.00
2022-11-28T06:25:23.254Z,10.67
2022-11-28T06:27:49.688Z,34.40
2022-11-28T06:30:16.267Z,7.00
2022-11-28T06:32:42.827Z,7.00
2022-11-28T06:35:09.316Z,6.00
2022-11-28T06:37:35.801Z,5.75
2022-11-28T06:40:02.228Z,7.75
2022-11-28T06:42:28.634Z,8.00
2022-11-28T06:44:55.035Z,12.75
2022-11-28T06:47:21.482Z,8.00
2022-11-28T06:49:48.664Z,19.00
2022-11-28T06:52:15.120Z,5.00
2022-11-28T06:54:41.988Z,6.00
2022-11-28T06:57:08.395Z,8.20
2022-11-28T06:59:34.859Z,8.60
2022-11-28T07:02:07.581Z,6.00
2022-11-28T07:04:34.365Z,7.00
2022-11-28T07:07:00.758Z,5.50
2022-11-28T07:09:27.269Z,9.40
2022-11-28T07:11:53.687Z,6.00
2022-11-28T07:14:20.110Z,8.00
2022-11-28T07:16:47.446Z,18.40
2022-11-28T07:19:14.105Z,7.00
2022-11-28T07:21:41.303Z,6.00
2022-11-28T07:24:07.993Z,5.80
2022-11-28T07:26:35.631Z,15.75
2022-11-28T07:29:02.059Z,6.75
2022-11-28T07:31:32.236Z,10.00
2022-11-28T07:34:00.146Z,5.00
2022-11-28T07:36:27.502Z,8.75
2022-11-28T07:38:54.927Z,5.20
2022-11-28T07:41:26.267Z,7.00
2022-11-28T07:43:54.669Z,5.20
2022-11-28T07:46:21.156Z,8.00
2022-11-28T07:48:48.342Z,7.00
2022-11-28T07:51:16.383Z,6.75
2022-11-28T07:53:43.346Z,7.00
2022-11-28T07:56:13.591Z,8.00
2022-11-28T07:58:40.046Z,8.80
2022-11-28T08:01:13.791Z,8.00
2022-11-28T08:03:40.251Z,14.00
2022-11-28T08:06:06.898Z,5.67
2022-11-28T08:08:33.776Z,7.25
2022-11-28T08:11:01.294Z,7.60
2022-11-28T08:13:27.976Z,7.00
2022-11-28T08:15:55.442Z,11.25
2022-11-28T08:18:21.873Z,6.40
2022-11-28T08:20:48.282Z,8.00
2022-11-28T08:23:14.742Z,7.00
2022-11-28T08:25:41.194Z,11.40
2022-11-28T08:28:07.731Z,8.60
2022-11-28T08:30:34.693Z,8.25
2022-11-28T08:33:01.169Z,11.60
2022-11-28T08:35:27.635Z,7.75
2022-11-28T08:38:01.485Z,9.00
2022-11-28T08:40:28.828Z,8.00
2022-11-28T08:42:55.821Z,15.00
2022-11-28T08:45:22.265Z,21.00
2022-11-28T08:47:48.735Z,26.40
2022-11-28T08:50:15.133Z,13.40
2022-11-28T08:52:41.580Z,31.25
2022-11-28T08:55:08.220Z,14.40
2022-11-28T08:57:34.626Z,6.80
2022-11-28T09:00:01.069Z,13.50
2022-11-28T09:02:27.502Z,11.25
2022-11-28T09:04:53.907Z,14.00
2022-11-28T09:07:20.351Z,24.75
2022-11-28T09:09:47.044Z,29.40
2022-11-28T09:12:13.749Z,35.00
2022-11-28T09:14:40.404Z,18.60
2022-11-28T09:17:06.969Z,25.75
2022-11-28T09:19:33.471Z,33.20
2022-11-28T09:21:59.881Z,21.33
2022-11-28T09:24:26.425Z,21.75
2022-11-28T09:26:52.847Z,22.25
2022-11-28T09:29:19.272Z,19.60
2022-11-28T09:31:47.575Z,29.60
2022-11-28T09:34:14.241Z,20.20
2022-11-28T09:36:40.714Z,15.00
2022-11-28T09:39:07.168Z,14.40
2022-11-28T09:41:42.380Z,8.00
2022-11-28T09:44:15.065Z,39.00
2022-11-28T09:46:41.802Z,62.00
2022-11-28T09:49:19.053Z,38.00
2022-11-28T09:51:53.748Z,71.50
2022-11-28T09:54:44.519Z,43.25
2022-11-28T09:57:14.257Z,50.25
2022-11-28T09:59:41.036Z,76.50
2022-11-28T10:02:12.131Z,40.50
2022-11-28T10:04:38.849Z,50.40
2022-11-28T10:07:15.727Z,45.20
2022-11-28T10:09:45.501Z,31.40
2022-11-28T10:12:21.278Z,30.25
2022-11-28T10:15:10.837Z,38.40
2022-11-28T10:17:40.007Z,30.60
2022-11-28T10:20:17.694Z,17.50
2022-11-28T10:22:46.854Z,12.80
2022-11-28T10:25:19.449Z,30.00
2022-11-28T10:27:46.983Z,40.75
2022-11-28T10:30:19.336Z,20.50
2022-11-28T10:32:51.504Z,25.50
2022-11-28T10:35:36.586Z,25.00
2022-11-28T10:38:06.656Z,33.80
2022-11-28T10:40:33.095Z,17.00
2022-11-28T10:43:05.402Z,16.75
2022-11-28T10:45:58.438Z,32.60
2022-11-28T10:48:40.979Z,26.50
2022-11-28T10:51:16.971Z,17.00
2022-11-28T10:53:43.393Z,13.20
2022-11-28T10:56:11.688Z,22.50
2022-11-28T10:58:55.292Z,22.00
2022-11-28T11:01:21.987Z,30.20
2022-11-28T11:03:48.950Z,36.80
2022-11-28T11:06:15.366Z,30.60
2022-11-28T11:08:41.838Z,37.75
2022-11-28T11:11:22.729Z,28.80
2022-11-28T11:13:56.929Z,26.00
2022-11-28T11:16:23.504Z,27.40
2022-11-28T11:18:49.962Z,21.60
2022-11-28T11:21:23.970Z,23.00
2022-11-28T11:24:10.046Z,17.25
2022-11-28T11:26:39.347Z,28.75
2022-11-28T11:29:05.883Z,24.25
2022-11-28T11:31:40.956Z,32.25
2022-11-28T11:34:12.761Z,17.75
2022-11-28T11:36:39.221Z,20.25
2022-11-28T11:39:12.025Z,17.75
2022-11-28T11:41:39.591Z,29.80
2022-11-28T11:44:15.070Z,28.00
2022-11-28T11:46:55.204Z,19.00
2022-11-28T11:49:36.829Z,18.40
2022-11-28T11:52:14.528Z,46.75
2022-11-28T11:54:56.354Z,68.40
2022-11-28T11:57:33.089Z,71.25
2022-11-28T12:00:09.487Z,66.50
2022-11-28T12:02:46.822Z,61.50
2022-11-28T12:05:15.643Z,55.75
2022-11-28T12:07:48.436Z,58.75
2022-11-28T12:10:18.159Z,54.20
2022-11-28T12:12:44.642Z,46.00
2022-11-28T12:15:25.199Z,85.33
2022-11-28T12:18:03.857Z,79.00
2022-11-28T12:20:39.503Z,52.40
2022-11-28T12:23:21.285Z,85.20
2022-11-28T12:25:55.883Z,141.40
2022-11-28T12:28:37.561Z,34.25
2022-11-28T12:31:22.736Z,74.00
2022-11-28T12:34:11.047Z,61.40
2022-11-28T12:36:42.821Z,64.80
2022-11-28T12:39:24.503Z,37.25
2022-11-28T12:42:02.176Z,42.50
2022-11-28T12:44:28.584Z,39.20
2022-11-28T12:47:01.145Z,35.75
2022-11-28T12:49:46.924Z,76.00
2022-11-28T12:52:40.668Z,51.00
2022-11-28T12:55:19.179Z,41.60
2022-11-28T12:57:53.446Z,43.75
2022-11-28T13:00:21.414Z,35.25
2022-11-28T13:03:03.759Z,66.50
2022-11-28T13:05:42.951Z,28.00
2022-11-28T13:08:12.372Z,46.75
2022-11-28T13:10:38.774Z,38.00
2022-11-28T13:13:10.113Z,32.40
2022-11-28T13:15:48.838Z,30.00
2022-11-28T13:18:34.648Z,35.00
2022-11-28T13:21:19.865Z,48.75
2022-11-28T13:24:06.919Z,72.00
2022-11-28T13:26:36.691Z,31.50
2022-11-28T13:29:15.207Z,47.75
2022-11-28T13:31:50.025Z,30.80
2022-11-28T13:34:17.606Z,22.50
2022-11-28T13:39:46.591Z,36.75
2022-11-28T13:45:01.865Z,25.50
2022-11-28T13:47:30.882Z,26.60
2022-11-28T13:50:29.668Z,50.00
2022-11-28T13:52:59.094Z,38.25
2022-11-28T13:55:40.779Z,26.00
2022-11-28T13:58:22.663Z,30.00
2022-11-28T14:01:18.358Z,53.25
2022-11-28T14:04:02.930Z,40.50
2022-11-28T14:06:44.554Z,14.00
2022-11-28T14:09:14.214Z,48.50
2022-11-28T14:11:43.669Z,53.00
2022-11-28T14:14:13.352Z,32.00
2022-11-28T14:16:55.213Z,40.75
2022-11-28T14:19:40.696Z,26.00
2022-11-28T14:22:22.467Z,21.60
2022-11-28T14:24:55.323Z,53.25
2022-11-28T14:27:24.632Z,29.00
2022-11-28T14:29:52.792Z,22.25
2022-11-28T14:32:31.112Z,31.00
2022-11-28T14:34:57.936Z,41.00
2022-11-28T14:37:28.636Z,48.75
2022-11-28T14:39:56.042Z,34.80
2022-11-28T14:42:58.250Z,23.50
2022-11-28T14:45:27.674Z,16.00
2022-11-28T14:48:17.365Z,15.80
2022-11-28T14:50:47.774Z,13.25
2022-11-28T14:53:32.892Z,14.50
2022-11-28T14:56:22.634Z,13.20
2022-11-28T14:58:50.356Z,17.25
2022-11-28T15:01:24.957Z,22.00
2022-11-28T15:04:02.259Z,11.60
2022-11-28T15:06:32.734Z,13.00
2022-11-28T15:09:16.630Z,11.40
2022-11-28T15:11:59.022Z,16.60
2022-11-28T15:14:27.175Z,18.00
2022-11-28T15:17:00.632Z,12.20
2022-11-28T15:19:53.520Z,12.80
2022-11-28T15:22:30.944Z,8.25
2022-11-28T15:24:57.382Z,7.80
2022-11-28T15:27:24.955Z,12.80
2022-11-28T15:29:54.158Z,30.00
2022-11-28T15:32:20.596Z,14.00
2022-11-28T15:34:51.725Z,27.25
2022-11-28T15:37:19.320Z,12.50
2022-11-28T15:39:47.581Z,18.50
2022-11-28T15:42:25.021Z,10.00
2022-11-28T15:44:55.559Z,9.50
2022-11-28T15:47:22.304Z,8.00
2022-11-28T15:49:59.406Z,31.00
2022-11-28T15:52:25.923Z,37.40
2022-11-28T15:54:52.350Z,45.25
2022-11-28T15:57:20.386Z,99.00
2022-11-28T15:59:46.893Z,23.00
2022-11-28T16:02:28.138Z,44.75
2022-11-28T16:05:02.330Z,34.40
2022-11-28T16:07:28.827Z,42.00
2022-11-28T16:09:58.086Z,41.75
2022-11-28T16:12:24.672Z,24.50
2022-11-28T16:14:53.350Z,21.50
2022-11-28T16:17:22.660Z,28.75
2022-11-28T16:19:51.216Z,19.20
2022-11-28T16:22:19.585Z,37.75
2022-11-28T16:24:47.484Z,29.00
2022-11-28T16:27:32.834Z,21.00
2022-11-28T16:30:00.801Z,21.25
2022-11-28T16:32:38.058Z,22.40
2022-11-28T16:35:05.833Z,6.00
2022-11-28T16:37:33.003Z,6.60
2022-11-28T16:40:05.508Z,29.25
2022-11-28T16:42:32.641Z,35.00
2022-11-28T16:45:15.790Z,41.00
2022-11-28T16:47:43.325Z,16.00
2022-11-28T16:50:15.439Z,43.25
2022-11-28T16:52:43.777Z,31.00
2022-11-28T16:55:28.614Z,44.75
2022-11-28T16:58:14.080Z,48.75
2022-11-28T17:00:42.394Z,51.50
2022-11-28T17:03:28.766Z,40.80
2022-11-28T17:05:55.216Z,52.00
2022-11-28T17:08:23.865Z,30.50
2022-11-28T17:10:53.934Z,34.00
2022-11-28T17:13:20.377Z,38.00
2022-11-28T17:15:46.782Z,30.00
2022-11-28T17:18:13.206Z,52.40
2022-11-28T17:20:39.604Z,59.00
2022-11-28T17:23:06.075Z,60.00
2022-11-28T17:25:32.481Z,86.60
2022-11-28T17:27:58.886Z,69.50
2022-11-28T17:30:25.321Z,143.50
2022-11-28T17:32:52.160Z,65.25
2022-11-28T17:35:25.533Z,44.40
2022-11-28T17:37:51.931Z,44.80
2022-11-28T17:40:33.310Z,40.00
2022-11-28T17:43:01.072Z,44.40
2022-11-28T17:45:28.843Z,42.80
2022-11-28T17:47:55.282Z,46.00
2022-11-28T17:50:21.738Z,50.40
2022-11-28T17:52:48.270Z,52.60
2022-11-28T17:55:14.698Z,46.00
2022-11-28T17:57:41.167Z,19.60
2022-11-28T18:00:08.605Z,32.20
2022-11-28T18:02:35.117Z,22.00
2022-11-28T18:05:01.668Z,40.40
2022-11-28T18:07:28.394Z,41.00
2022-11-28T18:09:54.878Z,52.00
2022-11-28T18:12:21.332Z,38.50
2022-11-28T18:14:47.854Z,58.75
2022-11-28T18:17:14.325Z,32.00
2022-11-28T18:19:40.856Z,43.00
2022-11-28T18:22:08.613Z,36.40
2022-11-28T18:24:35.156Z,40.00
2022-11-28T18:27:01.561Z,46.00
2022-11-28T18:29:28.124Z,54.00
2022-11-28T18:31:54.574Z,71.60
2022-11-28T18:34:20.997Z,76.00
2022-11-28T18:36:47.574Z,78.75
2022-11-28T18:39:15.060Z,51.50
2022-11-28T18:41:41.557Z,87.00
2022-11-28T18:44:08.491Z,211.60
2022-11-28T18:46:35.943Z,85.25
2022-11-28T18:49:03.261Z,100.25
2022-11-28T18:51:31.044Z,53.50
2022-11-28T18:53:58.023Z,90.00
2022-11-28T18:56:25.206Z,70.75
2022-11-28T18:58:52.581Z,68.25
2022-11-28T19:01:21.021Z,57.50
2022-11-28T19:03:51.582Z,63.60
2022-11-28T19:06:18.498Z,66.00
2022-11-28T19:08:45.033Z,53.00
2022-11-28T19:11:14.337Z,77.00
2022-11-28T19:13:41.855Z,86.00
2022-11-28T19:16:09.424Z,83.60
2022-11-28T19:18:36.187Z,80.50
2022-11-28T19:21:06.112Z,75.00
2022-11-28T19:23:32.992Z,49.40
2022-11-28T19:26:03.770Z,45.50
2022-11-28T19:28:30.204Z,43.75
2022-11-28T19:30:57.942Z,53.60
2022-11-28T19:33:24.358Z,44.00
2022-11-28T19:35:50.793Z,44.00
2022-11-28T19:38:17.253Z,41.50
2022-11-28T19:40:43.674Z,48.00
2022-11-28T19:43:10.099Z,39.50
2022-11-28T19:45:36.593Z,20.50
2022-11-28T19:48:03.095Z,25.00
2022-11-28T19:50:29.530Z,16.00
2022-11-28T19:52:55.948Z,17.00
2022-11-28T19:55:22.404Z,27.80
2022-11-28T19:57:48.950Z,28.20
2022-11-28T20:00:15.666Z,33.00
2022-11-28T20:02:42.176Z,27.00
2022-11-28T20:05:08.830Z,22.00
2022-11-28T20:07:35.562Z,25.00
2022-11-28T20:10:01.998Z,29.40
2022-11-28T20:12:28.422Z,23.00
2022-11-28T20:14:54.853Z,22.00
2022-11-28T20:17:21.253Z,26.25
2022-11-28T20:19:48.130Z,45.00
2022-11-28T20:22:14.565Z,32.25
2022-11-28T20:24:40.971Z,31.00
2022-11-28T20:27:07.367Z,36.00
2022-11-28T20:29:34.230Z,40.80
2022-11-28T20:32:00.822Z,48.00
2022-11-28T20:34:27.332Z,40.40
2022-11-28T20:36:54.176Z,33.00
2022-11-28T20:39:20.834Z,39.00
2022-11-28T20:41:47.382Z,35.00
2022-11-28T20:44:13.884Z,30.00
2022-11-28T20:46:40.382Z,33.75
2022-11-28T20:49:07.257Z,46.25
2022-11-28T20:51:34.531Z,43.80
2022-11-28T20:54:01.087Z,33.00
2022-11-28T20:56:41.780Z,36.00
2022-11-28T20:59:18.330Z,36.00
2022-11-28T21:01:44.753Z,45.25
2022-11-28T21:04:12.809Z,49.00
2022-11-28T21:06:39.326Z,44.00
2022-11-28T21:09:06.077Z,45.00
2022-11-28T21:11:55.647Z,37.40
2022-11-28T21:14:19.361Z,36.00
2022-11-28T21:16:45.923Z,38.40
2022-11-28T21:19:12.854Z,36.00
2022-11-28T21:21:40.137Z,34.60
2022-11-28T21:24:11.468Z,34.00
2022-11-28T21:26:43.047Z,37.40
2022-11-28T21:29:12.131Z,37.00
2022-11-28T21:31:40.618Z,37.50
2022-11-28T21:34:07.075Z,43.00
2022-11-28T21:36:33.570Z,40.00
2022-11-28T21:39:00.895Z,40.50
2022-11-28T21:41:28.973Z,30.00
2022-11-28T21:43:55.480Z,39.00
2022-11-28T21:46:21.930Z,40.00
2022-11-28T21:48:48.370Z,34.40
2022-11-28T21:51:19.006Z,39.75
2022-11-28T21:53:45.544Z,34.00
2022-11-28T21:56:11.969Z,33.00
2022-11-28T21:58:38.458Z,36.80
2022-11-28T22:01:06.404Z,50.50
2022-11-28T22:03:33.059Z,100.25
2022-11-28T22:06:01.337Z,43.00
2022-11-28T22:08:28.139Z,36.00
2022-11-28T22:10:54.732Z,37.00
2022-11-28T22:13:21.152Z,47.00
2022-11-28T22:15:47.608Z,37.75
2022-11-28T22:18:14.077Z,35.60
2022-11-28T22:20:41.954Z,35.50
2022-11-28T22:23:10.800Z,34.00
2022-11-28T22:25:37.327Z,39.00
2022-11-28T22:28:03.843Z,36.40
2022-11-28T22:30:30.429Z,40.00
2022-11-28T22:32:56.876Z,36.00
2022-11-28T22:35:23.295Z,36.25
2022-11-28T22:37:49.726Z,33.00
2022-11-28T22:40:16.135Z,33.00
2022-11-28T22:42:42.558Z,34.50
2022-11-28T22:45:09.842Z,36.67
2022-11-28T22:47:36.257Z,42.00
2022-11-28T22:50:02.695Z,39.40
2022-11-28T22:52:29.465Z,40.00
2022-11-28T22:54:55.910Z,42.00
2022-11-28T22:57:22.362Z,39.40
2022-11-28T22:59:48.788Z,33.80
2022-11-28T23:02:15.307Z,35.00
2022-11-28T23:04:41.963Z,32.60
2022-11-28T23:07:08.696Z,29.60
2022-11-28T23:09:35.138Z,33.60
2022-11-28T23:12:01.585Z,29.75
2022-11-28T23:14:28.135Z,39.80
2022-11-28T23:16:54.637Z,40.50
2022-11-28T23:19:21.104Z,41.60
2022-11-28T23:21:48.815Z,33.00
2022-11-28T23:24:20.265Z,34.00
2022-11-28T23:26:47.612Z,33.50
2022-11-28T23:29:14.374Z,38.75
2022-11-28T23:31:41.908Z,37.80
2022-11-28T23:34:09.115Z,34.60
2022-11-28T23:36:41.852Z,35.75
2022-11-28T23:39:19.084Z,37.00
2022-11-28T23:41:45.979Z,44.00
2022-11-28T23:44:12.932Z,36.50
2022-11-28T23:46:39.663Z,34.50
2022-11-28T23:49:06.851Z,35.20
2022-11-28T23:51:33.567Z,39.75
2022-11-28T23:54:00.020Z,39.00
2022-11-28T23:56:28.025Z,47.25
2022-11-28T23:58:55.581Z,46.50
